Time;durP1;ratioP1;P1;durP2;ratioP2;P2;SDS_P1;SDS_P2;PMS_P1;PMS_P2;Temp;Humidity;BMP_temperature;BMP_pressure;BME280_temperature;BME280_humidity;BME280_pressure;Samples;Min_cycle;Max_cycle;Signal;HPM_P1;HPM_P2
2021/06/01 00:01:42;;;;;;;4.83;3.93;;;14.60;98.00;;;;;;5069067;28;20879;-72
2021/06/01 00:04:09;;;;;;;4.93;4.23;;;14.60;98.30;;;;;;5068840;28;20390;-72
2021/06/01 00:06:35;;;;;;;5.20;4.30;;;14.50;98.40;;;;;;5064624;28;20469;-72
2021/06/01 00:09:02;;;;;;;6.23;3.90;;;14.50;99.20;;;;;;5044207;28;20403;-72
2021/06/01 00:11:28;;;;;;;4.53;3.60;;;14.50;98.90;;;;;;5039798;28;20176;-72
2021/06/01 00:13:53;;;;;;;5.20;3.90;;;14.50;98.80;;;;;;5055307;28;20456;-72
2021/06/01 00:16:20;;;;;;;4.50;4.00;;;14.50;98.90;;;;;;5055512;28;20168;-72
2021/06/01 00:18:46;;;;;;;4.63;3.40;;;14.40;99.10;;;;;;5055367;28;20666;-72
2021/06/01 00:21:12;;;;;;;5.50;3.93;;;14.40;98.40;;;;;;5052372;28;20419;-72
2021/06/01 00:23:38;;;;;;;4.13;3.73;;;14.40;98.10;;;;;;5035620;28;20403;-72
2021/06/01 00:26:06;;;;;;;4.07;3.13;;;14.40;98.20;;;;;;5035389;28;20534;-72
2021/06/01 00:28:33;;;;;;;3.80;3.30;;;14.40;98.50;;;;;;5040151;28;20414;-72
2021/06/01 00:30:59;;;;;;;7.53;4.30;;;14.40;99.20;;;;;;5040242;28;20925;-72
2021/06/01 00:33:24;;;;;;;7.13;4.73;;;14.30;99.20;;;;;;5035120;28;20411;-72
2021/06/01 00:35:50;;;;;;;19.30;13.60;;;14.30;99.10;;;;;;5035033;28;20165;-72
2021/06/01 00:38:16;;;;;;;15.03;9.83;;;14.30;99.90;;;;;;5035196;28;20756;-72
2021/06/01 00:40:41;;;;;;;13.10;9.07;;;14.20;99.90;;;;;;5035164;28;20160;-72
2021/06/01 00:43:07;;;;;;;14.03;9.07;;;14.20;99.90;;;;;;5035460;28;20172;-72
2021/06/01 00:45:33;;;;;;;10.57;7.10;;;14.20;99.90;;;;;;5040094;28;20179;-72
2021/06/01 00:47:58;;;;;;;12.70;8.60;;;14.10;99.90;;;;;;5054865;28;20214;-72
2021/06/01 00:50:27;;;;;;;14.37;8.87;;;14.10;99.90;;;;;;5054357;28;20184;-72
2021/06/01 00:52:54;;;;;;;9.00;6.80;;;14.00;99.90;;;;;;5035323;28;20256;-72
2021/06/01 00:55:20;;;;;;;8.93;6.60;;;14.00;99.90;;;;;;5034793;28;20392;-72
2021/06/01 00:57:46;;;;;;;7.03;6.20;;;14.00;99.90;;;;;;5034674;28;20497;-72
2021/06/01 01:03:00;;;;;;;9.90;5.90;;;13.90;99.90;;;;;;5042574;28;20537;-72
2021/06/01 01:05:31;;;;;;;7.67;6.00;;;13.90;99.90;;;;;;5042676;28;20423;-72
2021/06/01 01:10:47;;;;;;;17.70;10.30;;;13.80;99.90;;;;;;5070230;28;20597;-73
2021/06/01 01:13:15;;;;;;;21.93;12.87;;;13.80;99.90;;;;;;5070144;28;20402;-71
2021/06/01 01:15:42;;;;;;;22.50;14.67;;;13.80;99.90;;;;;;5070153;28;20932;-72
2021/06/01 01:18:14;;;;;;;18.20;11.33;;;13.80;99.90;;;;;;5070156;28;20382;-71
2021/06/01 01:20:53;;;;;;;14.70;9.17;;;13.70;99.90;;;;;;5055433;28;20415;-71
2021/06/01 01:23:21;;;;;;;10.70;7.87;;;13.70;99.90;;;;;;5050086;28;20783;-71
2021/06/01 01:29:09;;;;;;;13.33;8.80;;;13.60;99.90;;;;;;5110820;27;20525;-73
2021/06/01 01:31:58;;;;;;;7.60;5.87;;;13.60;99.90;;;;;;5109666;28;20400;-73
2021/06/01 01:34:25;;;;;;;10.00;6.40;;;13.60;99.90;;;;;;5110633;28;20404;-73
2021/06/01 01:36:52;;;;;;;8.33;6.97;;;13.60;99.90;;;;;;5102641;28;20928;-73
2021/06/01 01:39:18;;;;;;;8.40;5.50;;;13.50;99.90;;;;;;5090281;28;20385;-73
2021/06/01 01:41:44;;;;;;;5.77;5.13;;;13.50;99.90;;;;;;5090385;28;20474;-73
2021/06/01 01:44:13;;;;;;;5.90;4.63;;;13.50;99.90;;;;;;5090114;28;20389;-73
2021/06/01 01:49:22;;;;;;;7.87;4.90;;;13.40;99.90;;;;;;5090260;27;20526;-73
2021/06/01 01:51:52;;;;;;;7.90;6.47;;;13.40;99.90;;;;;;5090163;28;20496;-73
2021/06/01 01:54:22;;;;;;;64.40;37.00;;;13.40;99.90;;;;;;5089797;28;20543;-73
2021/06/01 01:56:51;;;;;;;48.57;28.43;;;13.40;99.90;;;;;;5090432;28;20395;-73
2021/06/01 01:59:20;;;;;;;35.87;21.70;;;13.30;99.90;;;;;;5090305;28;20500;-73
2021/06/01 02:01:49;;;;;;;30.30;18.27;;;13.30;99.90;;;;;;5088279;28;20493;-73
2021/06/01 02:04:24;;;;;;;19.57;13.27;;;13.30;99.90;;;;;;5090476;28;20417;-73
2021/06/01 02:06:50;;;;;;;21.93;12.23;;;13.30;99.90;;;;;;5090191;28;20377;-73
2021/06/01 02:09:17;;;;;;;18.60;10.60;;;13.20;99.90;;;;;;5090039;28;20401;-73
2021/06/01 02:11:42;;;;;;;12.87;9.30;;;13.20;99.90;;;;;;5075460;28;20890;-71
2021/06/01 02:14:09;;;;;;;9.40;7.03;;;13.20;99.90;;;;;;5069697;28;20540;-71
2021/06/01 02:16:37;;;;;;;9.00;5.67;;;13.20;99.90;;;;;;5069636;28;20191;-71
2021/06/01 02:19:05;;;;;;;9.03;5.67;;;13.20;99.90;;;;;;5069727;28;20477;-71
2021/06/01 02:29:59;;;;;;;7.00;4.80;;;13.10;99.90;;;;;;5061282;28;20621;-70
2021/06/01 02:32:32;;;;;;;7.77;5.30;;;13.10;99.90;;;;;;5029190;28;20466;-70
2021/06/01 02:35:02;;;;;;;7.10;4.90;;;13.00;99.90;;;;;;5030525;28;20427;-70
2021/06/01 02:37:28;;;;;;;8.60;5.23;;;13.00;99.90;;;;;;5030714;28;20395;-70
2021/06/01 02:39:55;;;;;;;6.73;4.13;;;13.00;99.90;;;;;;5030278;28;20387;-70
2021/06/01 02:42:20;;;;;;;5.43;4.20;;;13.00;99.90;;;;;;5030144;28;20156;-70
2021/06/01 02:44:46;;;;;;;5.37;4.07;;;12.90;99.90;;;;;;5036795;28;20410;-69
2021/06/01 02:47:12;;;;;;;5.50;3.90;;;12.90;99.90;;;;;;5030069;28;20480;-69
2021/06/01 02:49:38;;;;;;;9.80;4.67;;;12.90;99.90;;;;;;5030128;28;20184;-69
2021/06/01 02:52:04;;;;;;;6.13;4.03;;;12.90;99.90;;;;;;5048148;28;20184;-69
2021/06/01 02:54:30;;;;;;;5.23;3.87;;;12.80;99.90;;;;;;5049859;28;20157;-69
2021/06/01 02:56:56;;;;;;;4.20;3.80;;;12.80;99.90;;;;;;5049750;28;20752;-69
2021/06/01 02:59:23;;;;;;;4.97;4.50;;;12.80;99.90;;;;;;5039378;28;20447;-69
2021/06/01 03:01:49;;;;;;;4.03;3.70;;;12.80;99.90;;;;;;5029667;28;20184;-69
2021/06/01 03:04:15;;;;;;;4.57;3.70;;;12.80;99.90;;;;;;5029691;28;20816;-69
2021/06/01 03:06:43;;;;;;;4.50;4.00;;;12.80;99.90;;;;;;5029876;28;20490;-69
2021/06/01 03:09:08;;;;;;;7.03;3.63;;;12.70;99.90;;;;;;5029470;28;20193;-69
2021/06/01 03:11:35;;;;;;;4.40;4.00;;;12.70;99.90;;;;;;5029637;28;20396;-69
2021/06/01 03:14:00;;;;;;;6.00;5.23;;;12.70;99.90;;;;;;5029554;28;20153;-69
2021/06/01 03:16:26;;;;;;;5.17;3.87;;;12.60;99.90;;;;;;5029528;28;20450;-69
2021/06/01 03:18:51;;;;;;;5.20;4.70;;;12.70;99.90;;;;;;5029279;28;20180;-69
2021/06/01 03:21:17;;;;;;;4.50;4.10;;;12.60;99.90;;;;;;5029413;28;20161;-69
2021/06/01 03:23:46;;;;;;;4.90;4.10;;;12.60;99.90;;;;;;5029056;28;20181;-69
2021/06/01 03:26:13;;;;;;;3.87;3.33;;;12.60;99.90;;;;;;5029607;28;20415;-69
2021/06/01 03:28:40;;;;;;;4.80;4.30;;;12.50;99.90;;;;;;5029078;28;20467;-69
2021/06/01 03:31:06;;;;;;;4.57;4.10;;;12.50;99.90;;;;;;5029184;28;20908;-69
2021/06/01 03:33:33;;;;;;;5.00;4.57;;;12.50;99.90;;;;;;5029475;28;20923;-69
2021/06/01 03:35:59;;;;;;;4.90;3.90;;;12.50;99.90;;;;;;5028986;28;20473;-69
2021/06/01 03:38:26;;;;;;;4.30;3.87;;;12.50;99.90;;;;;;5028834;28;20511;-69
2021/06/01 03:40:53;;;;;;;4.70;4.20;;;12.50;99.90;;;;;;5016049;28;20154;-69
2021/06/01 03:43:18;;;;;;;6.87;5.20;;;12.50;99.90;;;;;;5015856;28;20396;-69
2021/06/01 03:45:44;;;;;;;4.97;4.47;;;12.40;99.90;;;;;;5016184;28;20397;-69
2021/06/01 03:48:09;;;;;;;8.20;4.87;;;12.40;99.90;;;;;;5015804;28;20192;-69
2021/06/01 03:50:35;;;;;;;4.40;4.00;;;12.40;99.90;;;;;;5015298;28;20178;-69
2021/06/01 03:53:02;;;;;;;6.03;4.50;;;12.40;99.90;;;;;;5015585;28;20201;-69
2021/06/01 03:55:28;;;;;;;6.57;4.73;;;12.40;99.90;;;;;;5015824;28;20249;-69
2021/06/01 03:57:53;;;;;;;8.20;4.70;;;12.40;99.90;;;;;;5015392;28;20864;-69
2021/06/01 04:00:23;;;;;;;5.93;4.90;;;12.40;99.90;;;;;;5015546;28;20201;-69
2021/06/01 04:02:49;;;;;;;6.07;5.17;;;12.40;99.90;;;;;;5015736;28;20165;-69
2021/06/01 04:05:18;;;;;;;6.23;5.07;;;12.40;99.90;;;;;;5015527;28;20459;-69
2021/06/01 04:07:45;;;;;;;4.67;4.10;;;12.40;99.90;;;;;;5015249;28;20444;-69
2021/06/01 04:10:12;;;;;;;7.90;5.00;;;12.40;99.90;;;;;;5015051;28;20500;-69
2021/06/01 04:12:38;;;;;;;7.47;4.30;;;12.40;99.90;;;;;;5015624;28;20452;-69
2021/06/01 04:15:04;;;;;;;5.17;4.70;;;12.40;99.90;;;;;;5015300;28;20867;-69
2021/06/01 04:17:30;;;;;;;5.33;4.73;;;12.40;99.90;;;;;;5015443;28;20158;-69
2021/06/01 04:19:55;;;;;;;5.33;4.77;;;12.40;99.90;;;;;;5015115;28;20389;-69
2021/06/01 04:22:21;;;;;;;8.50;4.67;;;12.40;99.90;;;;;;5014996;28;20197;-69
2021/06/01 04:24:46;;;;;;;5.67;5.10;;;12.40;99.90;;;;;;5015175;28;20574;-69
2021/06/01 04:27:12;;;;;;;6.13;5.00;;;12.40;99.90;;;;;;5013995;28;20178;-69
2021/06/01 04:29:37;;;;;;;7.77;4.97;;;12.40;99.90;;;;;;5015094;28;20178;-69
2021/06/01 04:32:03;;;;;;;6.10;4.60;;;12.40;99.90;;;;;;5015332;28;20173;-69
2021/06/01 04:34:29;;;;;;;7.87;5.07;;;12.40;99.90;;;;;;5014807;28;20174;-69
2021/06/01 04:36:55;;;;;;;10.77;5.97;;;12.40;99.90;;;;;;5014838;28;20399;-69
2021/06/01 04:39:20;;;;;;;10.57;6.10;;;12.40;99.90;;;;;;5014885;28;20541;-69
2021/06/01 04:41:46;;;;;;;12.70;5.30;;;12.50;99.90;;;;;;5014944;28;20165;-69
2021/06/01 04:44:12;;;;;;;9.47;6.60;;;12.50;99.90;;;;;;5014754;28;20186;-69
2021/06/01 04:46:37;;;;;;;6.30;5.43;;;12.50;99.90;;;;;;5014764;28;20633;-69
2021/06/01 04:49:03;;;;;;;6.57;5.77;;;12.50;99.90;;;;;;5014592;28;20197;-69
2021/06/01 04:51:29;;;;;;;7.47;6.70;;;12.50;99.90;;;;;;5013319;28;20224;-69
2021/06/01 04:53:57;;;;;;;6.10;5.50;;;12.60;99.90;;;;;;5014580;28;20613;-69
2021/06/01 04:56:23;;;;;;;7.07;5.30;;;12.60;99.90;;;;;;5014609;28;20862;-69
2021/06/01 04:58:49;;;;;;;6.27;5.67;;;12.60;99.90;;;;;;5014400;28;20443;-69
2021/06/01 05:01:15;;;;;;;6.33;5.73;;;12.70;99.90;;;;;;5014520;28;20503;-69
2021/06/01 05:03:41;;;;;;;7.17;5.20;;;12.70;99.90;;;;;;5014815;28;20161;-69
2021/06/01 05:06:07;;;;;;;7.77;5.77;;;12.80;99.90;;;;;;5014159;28;20209;-69
2021/06/01 05:08:34;;;;;;;6.33;5.73;;;12.80;99.90;;;;;;5013417;28;20461;-69
2021/06/01 05:11:00;;;;;;;5.33;4.83;;;12.90;99.90;;;;;;5013451;28;20452;-69
2021/06/01 05:13:25;;;;;;;8.77;5.23;;;12.90;99.90;;;;;;5014448;28;20397;-69
2021/06/01 05:15:52;;;;;;;7.40;4.63;;;13.00;99.90;;;;;;5014494;28;20158;-69
2021/06/01 05:18:18;;;;;;;8.73;5.30;;;13.10;99.90;;;;;;5014065;28;20498;-69
2021/06/01 05:20:45;;;;;;;6.67;4.57;;;13.10;99.90;;;;;;5013894;28;20474;-69
2021/06/01 05:23:11;;;;;;;6.37;5.43;;;13.20;99.90;;;;;;5014214;28;20897;-69
2021/06/01 05:25:37;;;;;;;5.87;5.27;;;13.30;99.90;;;;;;5013700;28;20488;-69
2021/06/01 05:28:03;;;;;;;6.00;3.80;;;13.30;99.90;;;;;;5013989;28;20972;-69
2021/06/01 05:30:35;;;;;;;4.30;3.90;;;13.50;99.90;;;;;;5014200;28;20154;-69
2021/06/01 05:35:54;;;;;;;4.33;3.93;;;13.60;99.90;;;;;;5010152;28;20420;-69
2021/06/01 05:38:21;;;;;;;5.83;3.80;;;13.70;99.90;;;;;;5000298;28;20447;-69
2021/06/01 05:40:47;;;;;;;5.40;4.50;;;13.80;99.90;;;;;;5008135;28;20474;-69
2021/06/01 05:43:13;;;;;;;5.40;4.00;;;13.90;99.90;;;;;;5032209;28;20443;-69
2021/06/01 05:45:40;;;;;;;4.63;3.90;;;14.00;99.90;;;;;;5010977;28;20464;-69
2021/06/01 05:48:07;;;;;;;4.70;3.47;;;14.10;99.90;;;;;;5008274;28;20256;-69
2021/06/01 05:50:33;;;;;;;6.17;3.97;;;14.20;99.90;;;;;;5013545;28;20454;-69
2021/06/01 05:53:00;;;;;;;4.57;3.93;;;14.30;99.90;;;;;;5013351;28;20913;-69
2021/06/01 05:55:26;;;;;;;6.73;3.83;;;14.30;99.90;;;;;;5013591;28;20932;-69
2021/06/01 05:57:52;;;;;;;7.30;3.63;;;14.40;99.90;;;;;;5010476;28;20445;-69
2021/06/01 06:00:18;;;;;;;3.80;3.47;;;14.50;99.90;;;;;;4993949;28;20425;-69
2021/06/01 06:02:44;;;;;;;2.90;2.70;;;14.60;99.90;;;;;;5006793;28;20440;-70
2021/06/01 06:05:10;;;;;;;3.53;3.00;;;14.70;99.90;;;;;;5013513;28;20446;-70
2021/06/01 06:07:36;;;;;;;4.67;3.77;;;14.80;99.90;;;;;;5013381;28;20182;-70
2021/06/01 06:10:02;;;;;;;8.37;3.10;;;14.90;99.90;;;;;;5006628;28;20453;-70
2021/06/01 06:12:27;;;;;;;3.50;3.20;;;15.00;99.90;;;;;;5007263;28;20546;-69
2021/06/01 06:14:53;;;;;;;3.70;2.90;;;15.10;99.90;;;;;;5012576;28;20428;-69
2021/06/01 06:17:44;;;;;;;5.57;3.70;;;15.30;99.90;;;;;;5005315;28;20779;-69
2021/06/01 06:20:11;;;;;;;3.50;3.20;;;15.40;99.90;;;;;;5012278;28;20170;-69
2021/06/01 06:22:37;;;;;;;3.20;2.90;;;15.40;99.90;;;;;;4996960;28;20462;-69
2021/06/01 06:25:09;;;;;;;6.23;3.67;;;15.50;99.90;;;;;;5008496;28;20437;-69
2021/06/01 06:27:35;;;;;;;6.27;2.83;;;15.60;99.90;;;;;;4998158;28;20519;-70
2021/06/01 06:30:04;;;;;;;3.60;3.17;;;15.70;99.90;;;;;;5005921;28;20445;-69
2021/06/01 06:32:29;;;;;;;4.03;3.07;;;15.80;99.90;;;;;;5004388;28;20429;-69
2021/06/01 06:34:55;;;;;;;3.70;3.40;;;15.90;99.80;;;;;;5012980;28;20893;-69
2021/06/01 06:37:21;;;;;;;9.30;3.20;;;16.00;98.90;;;;;;5010409;28;20226;-69
2021/06/01 06:39:48;;;;;;;4.40;3.30;;;16.20;99.20;;;;;;5013231;28;20185;-70
2021/06/01 06:42:13;;;;;;;3.40;3.10;;;16.30;98.80;;;;;;5012149;28;20563;-70
2021/06/01 06:44:41;;;;;;;7.37;3.67;;;16.40;98.10;;;;;;5004926;28;20497;-70
2021/06/01 06:49:45;;;;;;;3.23;2.93;;;16.50;99.10;;;;;;5040630;28;20510;-70
2021/06/01 06:52:12;;;;;;;2.90;2.67;;;16.60;98.10;;;;;;5026633;28;20430;-70
2021/06/01 06:54:38;;;;;;;2.93;2.63;;;16.70;97.30;;;;;;5027360;28;20486;-70
2021/06/01 06:57:05;;;;;;;6.13;2.90;;;16.80;96.30;;;;;;5018748;28;20431;-70
2021/06/01 06:59:31;;;;;;;2.70;2.50;;;17.00;94.40;;;;;;5021867;28;20502;-70
2021/06/01 07:01:57;;;;;;;3.37;2.67;;;17.10;94.70;;;;;;5018181;28;20419;-70
2021/06/01 07:04:25;;;;;;;3.40;2.80;;;17.20;94.80;;;;;;5019028;28;20629;-70
2021/06/01 07:06:51;;;;;;;4.67;2.57;;;17.40;91.90;;;;;;5020148;28;20439;-69
2021/06/01 07:09:16;;;;;;;3.27;2.30;;;17.70;89.80;;;;;;5025295;28;20465;-69
2021/06/01 07:11:42;;;;;;;2.93;2.40;;;18.00;87.20;;;;;;5024044;28;20180;-69
2021/06/01 07:16:45;;;;;;;2.50;2.30;;;18.30;82.80;;;;;;5054544;28;20533;-69
2021/06/01 07:19:12;;;;;;;3.13;2.83;;;18.70;77.80;;;;;;5040920;28;21063;-69
2021/06/01 07:21:38;;;;;;;2.90;2.60;;;19.00;73.80;;;;;;5049468;28;20225;-69
2021/06/01 07:24:05;;;;;;;4.17;2.70;;;19.40;72.00;;;;;;5036741;28;20423;-69
2021/06/01 07:26:31;;;;;;;2.93;2.70;;;19.80;67.80;;;;;;5038259;28;20173;-69
2021/06/01 07:28:59;;;;;;;2.90;2.70;;;20.60;65.30;;;;;;5053036;28;20498;-70
2021/06/01 07:31:24;;;;;;;3.40;2.47;;;21.80;59.50;;;;;;5045798;28;20646;-70
2021/06/01 07:33:51;;;;;;;3.73;2.53;;;23.40;56.50;;;;;;5038768;28;20425;-70
2021/06/01 07:36:17;;;;;;;3.70;2.30;;;25.00;49.50;;;;;;5059675;28;20217;-70
2021/06/01 07:38:43;;;;;;;2.80;2.60;;;26.50;47.50;;;;;;5051119;28;20443;-70
2021/06/01 07:41:09;;;;;;;2.33;2.10;;;27.80;42.40;;;;;;5056892;28;20785;-70
2021/06/01 07:43:34;;;;;;;7.50;4.80;;;29.00;38.00;;;;;;5055607;28;20181;-70
2021/06/01 07:46:03;;;;;;;9.93;8.93;;;30.00;36.00;;;;;;5050992;28;20192;-71
2021/06/01 07:48:34;;;;;;;5.43;4.77;;;31.10;33.70;;;;;;5045028;28;20661;-71
2021/06/01 07:51:00;;;;;;;6.17;3.40;;;32.00;31.90;;;;;;5054890;28;20432;-71
2021/06/01 07:53:25;;;;;;;5.90;3.10;;;32.80;30.00;;;;;;5051890;28;20423;-71
2021/06/01 07:55:52;;;;;;;4.60;2.10;;;33.40;29.60;;;;;;5056434;28;20458;-69
2021/06/01 07:58:19;;;;;;;2.90;1.90;;;33.90;27.20;;;;;;5068221;28;20565;-68
2021/06/01 08:00:44;;;;;;;2.07;1.87;;;34.30;27.30;;;;;;5068057;28;20494;-68
2021/06/01 08:03:10;;;;;;;2.30;2.20;;;34.70;26.30;;;;;;5050458;28;20494;-68
2021/06/01 08:05:36;;;;;;;3.67;1.77;;;34.80;25.80;;;;;;5048486;28;20176;-69
2021/06/01 08:08:01;;;;;;;2.63;1.93;;;35.30;26.40;;;;;;5044088;28;20256;-69
2021/06/01 08:10:28;;;;;;;2.00;1.73;;;35.70;25.30;;;;;;5029231;28;20166;-69
2021/06/01 08:12:54;;;;;;;1.97;1.87;;;36.10;25.10;;;;;;5029251;28;20169;-69
2021/06/01 08:15:22;;;;;;;2.03;1.93;;;36.50;24.50;;;;;;5028957;28;20466;-69
2021/06/01 08:17:53;;;;;;;3.70;2.07;;;37.10;24.60;;;;;;5049354;28;20450;-69
2021/06/01 08:20:30;;;;;;;2.13;1.97;;;37.40;22.90;;;;;;5049093;28;20422;-69
2021/06/01 08:22:56;;;;;;;2.20;1.53;;;37.50;22.60;;;;;;5049600;28;20441;-69
2021/06/01 08:25:22;;;;;;;2.13;1.97;;;38.40;22.40;;;;;;5045031;28;20451;-69
2021/06/01 08:27:48;;;;;;;1.90;1.80;;;39.20;22.70;;;;;;5037672;28;20614;-69
2021/06/01 08:30:14;;;;;;;2.77;2.13;;;40.10;20.90;;;;;;5035667;28;20400;-69
2021/06/01 08:32:40;;;;;;;6.37;1.90;;;40.80;20.40;;;;;;5035617;28;20168;-69
2021/06/01 08:35:06;;;;;;;4.70;2.17;;;41.20;19.30;;;;;;5035540;28;20642;-69
2021/06/01 08:37:32;;;;;;;1.58;1.48;;;41.20;19.20;;;;;;5034443;28;20169;-69
2021/06/01 08:39:58;;;;;;;1.47;1.37;;;40.80;19.20;;;;;;5041107;28;20191;-69
2021/06/01 08:42:23;;;;;;;1.70;1.60;;;41.00;19.20;;;;;;5033337;28;20185;-69
2021/06/01 08:44:50;;;;;;;4.40;1.60;;;41.00;19.00;;;;;;5034509;28;20192;-69
2021/06/01 08:47:19;;;;;;;1.60;1.50;;;41.40;18.50;;;;;;5033660;28;20167;-69
2021/06/01 08:49:46;;;;;;;1.67;1.58;;;41.50;19.00;;;;;;5034609;28;20591;-69
2021/06/01 08:52:12;;;;;;;2.03;1.92;;;41.50;18.50;;;;;;5034187;28;20175;-69
2021/06/01 08:54:37;;;;;;;2.70;2.50;;;42.10;18.60;;;;;;5034413;28;20173;-69
2021/06/01 08:57:03;;;;;;;1.80;1.70;;;42.50;18.40;;;;;;5041921;28;20266;-69
2021/06/01 08:59:29;;;;;;;5.20;2.00;;;42.80;17.80;;;;;;5035059;28;20242;-69
2021/06/01 09:01:54;;;;;;;4.28;1.70;;;42.60;17.50;;;;;;5033033;28;20157;-69
2021/06/01 09:04:20;;;;;;;1.63;1.50;;;42.50;17.60;;;;;;5034512;28;20157;-69
2021/06/01 09:06:53;;;;;;;1.75;1.63;;;42.50;17.40;;;;;;5034622;28;20193;-69
2021/06/01 09:12:28;;;;;;;1.87;1.77;;;42.10;17.80;;;;;;5104993;27;20563;-70
2021/06/01 09:15:05;;;;;;;1.98;1.77;;;41.90;18.00;;;;;;5088815;28;20655;-70
2021/06/01 09:23:10;;;;;;;1.85;1.75;;;41.30;18.80;;;;;;5070403;28;20613;-70
2021/06/01 09:25:43;;;;;;;4.18;1.77;;;40.70;19.70;;;;;;5069716;28;20171;-70
2021/06/01 09:28:11;;;;;;;1.52;1.42;;;40.70;20.60;;;;;;5069824;28;20147;-70
2021/06/01 09:35:59;;;;;;;2.15;2.05;;;39.70;19.40;;;;;;5070142;28;20507;-70
2021/06/01 09:41:06;;;;;;;1.70;1.60;;;37.70;20.90;;;;;;5070096;28;20661;-70
2021/06/01 09:43:34;;;;;;;2.20;1.90;;;37.00;22.20;;;;;;5070481;28;20171;-70
2021/06/01 09:46:19;;;;;;;2.10;1.67;;;36.30;21.90;;;;;;5070053;28;20246;-70
2021/06/01 09:48:45;;;;;;;1.67;1.43;;;35.60;22.20;;;;;;5064438;28;20183;-70
2021/06/01 09:51:12;;;;;;;2.00;1.90;;;35.10;23.10;;;;;;5050620;28;20273;-70
2021/06/01 09:53:38;;;;;;;1.90;1.80;;;34.80;23.20;;;;;;5049934;28;20252;-70
2021/06/01 09:56:04;;;;;;;4.80;1.80;;;34.30;23.70;;;;;;5047164;28;20827;-70
2021/06/01 09:58:32;;;;;;;2.40;2.20;;;33.90;25.60;;;;;;5032971;28;20558;-70
2021/06/01 10:01:00;;;;;;;2.37;1.83;;;33.30;24.70;;;;;;5040727;28;20184;-70
2021/06/01 10:03:35;;;;;;;4.40;2.20;;;33.20;25.30;;;;;;5049928;28;20990;-70
2021/06/01 10:06:00;;;;;;;2.27;2.07;;;33.20;25.80;;;;;;5049804;28;20470;-70
2021/06/01 10:08:29;;;;;;;2.07;1.97;;;32.60;25.20;;;;;;5048883;28;20569;-70
2021/06/01 10:10:57;;;;;;;5.30;2.03;;;32.30;25.40;;;;;;5043131;28;20189;-70
2021/06/01 10:13:24;;;;;;;2.43;1.70;;;31.90;25.60;;;;;;5038867;28;20431;-69
2021/06/01 10:15:51;;;;;;;2.10;2.00;;;31.70;26.60;;;;;;5049936;28;20417;-69
2021/06/01 10:18:19;;;;;;;2.70;1.93;;;31.20;27.00;;;;;;5030555;28;20423;-69
2021/06/01 10:20:48;;;;;;;2.43;1.80;;;30.70;26.40;;;;;;5029373;28;20467;-69
2021/06/01 10:23:19;;;;;;;2.60;2.40;;;30.00;27.90;;;;;;5032945;28;20411;-69
2021/06/01 10:25:44;;;;;;;2.80;2.40;;;29.80;27.20;;;;;;5029821;28;20487;-69
2021/06/01 10:28:11;;;;;;;2.30;1.93;;;29.60;27.90;;;;;;5036125;28;20466;-69
2021/06/01 10:30:39;;;;;;;4.13;1.80;;;29.30;28.20;;;;;;5057716;28;20180;-69
2021/06/01 10:33:08;;;;;;;2.50;1.90;;;29.10;29.10;;;;;;5049545;28;20466;-69
2021/06/01 10:35:40;;;;;;;2.57;1.77;;;28.80;28.50;;;;;;5042678;28;20466;-70
2021/06/01 10:42:31;;;;;;;4.00;1.90;;;27.70;29.40;;;;;;5047694;28;20986;-70
2021/06/01 10:52:29;;;;;;;3.63;2.30;;;26.20;32.20;;;;;;5067577;28;20548;-71
2021/06/01 10:54:57;;;;;;;2.27;2.10;;;26.10;32.60;;;;;;5061077;28;20460;-71
2021/06/01 10:57:43;;;;;;;2.80;2.10;;;26.00;34.10;;;;;;5058318;28;20204;-71
2021/06/01 11:03:07;;;;;;;3.37;3.07;;;25.60;34.10;;;;;;5069130;28;20844;-71
2021/06/01 11:14:22;;;;;;;3.43;2.67;;;25.40;33.60;;;;;;5060396;28;20563;-70
2021/06/01 11:16:52;;;;;;;2.40;2.20;;;25.00;36.00;;;;;;5048483;28;20418;-70
2021/06/01 11:19:19;;;;;;;2.60;2.30;;;24.90;35.30;;;;;;5060128;28;20406;-70
2021/06/01 11:22:09;;;;;;;4.33;2.90;;;24.60;36.20;;;;;;5068678;28;20487;-70
2021/06/01 11:25:02;;;;;;;7.97;3.33;;;24.60;36.20;;;;;;5069965;28;20410;-70
2021/06/01 11:40:57;;;;;;;2.97;2.67;;;24.10;38.40;;;;;;5069006;28;20542;-70
2021/06/01 11:43:23;;;;;;;2.80;2.60;;;24.00;38.50;;;;;;5048904;28;20485;-70
2021/06/01 11:48:30;;;;;;;2.60;2.40;;;23.90;37.10;;;;;;5085737;28;20504;-70
2021/06/01 12:02:07;;;;;;;2.10;2.00;;;23.80;37.70;;;;;;5064260;28;20469;-70
2021/06/01 12:18:40;;;;;;;2.63;2.43;;;23.50;38.10;;;;;;5069262;28;20402;-69
2021/06/01 12:21:23;;;;;;;2.47;2.27;;;23.50;38.20;;;;;;5050806;28;20916;-69
2021/06/01 12:24:02;;;;;;;2.70;2.50;;;23.50;38.90;;;;;;5061698;28;20950;-69
2021/06/01 12:26:39;;;;;;;4.20;2.90;;;23.50;37.60;;;;;;5066832;28;20537;-69
2021/06/01 12:31:50;;;;;;;3.20;2.40;;;23.50;38.10;;;;;;5059940;28;20521;-70
2021/06/01 12:34:18;;;;;;;3.10;2.10;;;23.50;38.50;;;;;;5047853;28;20418;-70
2021/06/01 12:44:58;;;;;;;2.43;2.23;;;23.60;38.40;;;;;;5070081;28;20516;-70
2021/06/01 13:13:14;;;;;;;2.40;2.20;;;23.40;35.80;;;;;;5061535;28;20454;-70
2021/06/01 13:20:53;;;;;;;2.37;2.20;;;23.50;36.00;;;;;;5047078;28;20477;-70
2021/06/01 13:56:45;;;;;;;5.40;3.20;;;23.40;43.50;;;;;;5054278;28;20525;-69
2021/06/01 13:59:24;;;;;;;5.90;3.10;;;23.40;43.90;;;;;;5035694;28;21007;-69
2021/06/01 14:09:34;;;;;;;3.30;2.73;;;23.40;44.50;;;;;;5032966;28;20441;-69
2021/06/01 14:10:25;;;;;;;3.33;3.03;;;23.30;44.10;;;;;;5029187;28;20427;-69
2021/06/01 14:15:21;;;;;;;3.50;2.90;;;23.40;44.20;;;;;;5044069;28;20545;-69
2021/06/01 14:37:49;;;;;;;4.00;2.80;;;23.30;44.10;;;;;;5061671;28;21009;-70
2021/06/01 15:30:50;;;;;;;4.80;4.37;;;23.30;41.50;;;;;;5043048;28;20434;-69
2021/06/01 15:50:07;;;;;;;4.50;2.83;;;23.40;42.00;;;;;;5039624;28;20423;-69
2021/06/01 16:15:08;;;;;;;3.63;3.33;;;23.10;43.00;;;;;;5071037;27;20665;-70
2021/06/01 16:23:08;;;;;;;3.80;2.53;;;23.00;44.10;;;;;;5091936;28;20519;-70
2021/06/01 17:07:17;;;;;;;3.00;2.70;;;22.50;45.40;;;;;;5087876;27;21012;-70
2021/06/01 17:12:53;;;;;;;4.60;3.60;;;22.50;45.50;;;;;;5075070;28;20432;-70
2021/06/01 17:15:20;;;;;;;5.47;3.30;;;22.50;45.40;;;;;;5077997;28;20409;-70
2021/06/01 17:17:50;;;;;;;5.63;4.10;;;22.50;45.50;;;;;;5073585;28;20420;-70
2021/06/01 17:31:41;;;;;;;3.97;3.57;;;22.30;45.50;;;;;;5040944;28;20474;-68
2021/06/01 17:36:45;;;;;;;3.20;2.30;;;22.30;45.50;;;;;;5037693;28;20439;-68
2021/06/01 17:39:11;;;;;;;3.70;2.80;;;22.40;45.30;;;;;;5027654;28;20420;-68
2021/06/01 17:41:37;;;;;;;3.83;2.93;;;22.30;45.60;;;;;;5032814;28;20450;-68
2021/06/01 17:44:05;;;;;;;4.50;2.50;;;22.20;45.70;;;;;;5041416;28;20542;-68
2021/06/01 17:46:34;;;;;;;3.27;2.80;;;22.20;45.90;;;;;;5030975;28;20681;-68
2021/06/01 17:49:01;;;;;;;8.07;3.40;;;22.30;46.00;;;;;;5026038;28;20423;-69
2021/06/01 17:51:28;;;;;;;5.57;3.13;;;22.30;46.10;;;;;;5029649;28;20930;-69
2021/06/01 17:53:56;;;;;;;3.40;3.10;;;22.20;46.30;;;;;;5048730;28;20517;-69
2021/06/01 17:56:24;;;;;;;4.77;2.70;;;22.20;46.40;;;;;;5034308;28;20443;-69
2021/06/01 17:58:51;;;;;;;2.27;2.07;;;22.20;46.20;;;;;;5028852;28;20459;-69
2021/06/01 18:01:19;;;;;;;2.90;2.50;;;22.20;46.60;;;;;;5034416;28;20426;-69
2021/06/01 18:03:52;;;;;;;9.13;4.30;;;22.10;46.30;;;;;;5049472;28;20458;-69
2021/06/01 18:06:18;;;;;;;4.60;2.80;;;22.10;46.50;;;;;;5029030;28;20430;-69
2021/06/01 18:08:58;;;;;;;4.73;3.03;;;22.00;46.60;;;;;;5036372;28;20493;-69
2021/06/01 18:29:24;;;;;;;4.53;3.87;;;22.00;46.80;;;;;;5033160;28;20435;-69
2021/06/01 18:36:55;;;;;;;7.83;3.87;;;21.70;47.60;;;;;;5055646;28;20441;-69
2021/06/01 19:29:38;;;;;;;4.77;3.53;;;20.70;49.40;;;;;;5079407;28;20425;-69
2021/06/01 19:51:32;;;;;;;4.13;3.73;;;20.20;50.90;;;;;;5089959;28;20428;-69
2021/06/01 19:53:58;;;;;;;3.40;3.10;;;20.10;50.90;;;;;;5084862;28;20463;-69
2021/06/01 19:56:24;;;;;;;5.90;3.17;;;20.10;51.20;;;;;;5084303;28;20258;-69
2021/06/01 19:58:51;;;;;;;4.33;3.93;;;20.00;51.30;;;;;;5081559;28;20574;-69
2021/06/01 20:01:17;;;;;;;4.20;3.70;;;20.00;51.50;;;;;;5079230;28;20185;-69
2021/06/01 20:03:44;;;;;;;5.60;3.87;;;19.90;51.60;;;;;;5070723;28;20419;-69
2021/06/01 20:06:10;;;;;;;5.07;4.50;;;19.90;51.80;;;;;;5079409;28;20188;-69
2021/06/01 20:08:39;;;;;;;5.20;4.30;;;19.80;52.40;;;;;;5073562;28;20565;-69
2021/06/01 20:11:05;;;;;;;6.43;3.83;;;19.70;52.80;;;;;;5084399;28;20440;-69
2021/06/01 20:13:31;;;;;;;8.30;6.40;;;19.60;54.20;;;;;;5072227;28;20463;-69
2021/06/01 20:15:56;;;;;;;6.90;5.40;;;19.50;53.90;;;;;;5072682;28;20311;-69
2021/06/01 20:18:28;;;;;;;6.00;5.40;;;19.50;53.80;;;;;;5076868;28;20180;-69
2021/06/01 20:20:55;;;;;;;5.93;5.33;;;19.40;54.00;;;;;;5068810;28;20182;-69
2021/06/01 20:23:22;;;;;;;6.30;5.63;;;19.30;54.90;;;;;;5078474;28;20971;-69
2021/06/01 20:25:50;;;;;;;6.63;5.60;;;19.30;55.30;;;;;;5066294;28;20460;-69
2021/06/01 20:28:24;;;;;;;8.00;6.27;;;19.20;56.10;;;;;;5063927;28;20433;-69